Time;durP1;ratioP1;P1;durP2;ratioP2;P2;SDS_P1;SDS_P2;PMS_P1;PMS_P2;Temp;Humidity;BMP_temperature;BMP_pressure;BME280_temperature;BME280_humidity;BME280_pressure;Samples;Min_cycle;Max_cycle;Signal;HPM_P1;HPM_P2
2022/03/27 00:01:10;;;;;;;10.47;6.23;;;;;;;13.03;36.76;95539.50;5089553;28;20570;-74
2022/03/27 00:03:37;;;;;;;11.50;6.57;;;;;;;13.03;36.89;95550.59;5090048;28;20200;-75
2022/03/27 00:06:03;;;;;;;10.30;6.33;;;;;;;13.02;37.03;95550.72;5090014;28;20584;-76
2022/03/27 00:08:30;;;;;;;11.40;6.73;;;;;;;12.96;37.03;95535.88;5089869;28;20239;-75
2022/03/27 00:13:41;;;;;;;13.13;8.07;;;;;;;12.92;37.10;95540.44;5085647;28;20316;-75
2022/03/27 00:16:10;;;;;;;13.00;8.20;;;;;;;12.89;37.39;95534.75;5092952;28;20193;-73
2022/03/27 00:18:37;;;;;;;16.10;8.57;;;;;;;12.88;37.24;95539.09;5093421;28;20193;-76
2022/03/27 00:21:05;;;;;;;14.43;7.63;;;;;;;12.79;37.36;95532.97;5093433;28;20185;-73
2022/03/27 00:23:34;;;;;;;18.37;7.77;;;;;;;12.80;37.42;95534.59;5092650;28;20228;-73
2022/03/27 00:26:01;;;;;;;14.50;8.30;;;;;;;12.76;37.60;95535.78;5093360;28;20182;-73
2022/03/27 00:28:32;;;;;;;16.13;7.63;;;;;;;12.72;37.69;95533.63;5093615;28;20189;-72
2022/03/27 00:31:00;;;;;;;14.90;7.87;;;;;;;12.68;37.50;95527.94;5093949;28;20190;-71
2022/03/27 00:33:29;;;;;;;15.43;8.30;;;;;;;12.64;37.60;95529.13;5092997;28;20263;-74
2022/03/27 00:35:56;;;;;;;14.10;9.10;;;;;;;12.63;37.61;95524.94;5093431;28;20186;-74
2022/03/27 00:38:23;;;;;;;13.83;8.17;;;;;;;12.58;38.05;95532.22;5092852;28;20194;-72
2022/03/27 00:40:51;;;;;;;20.23;9.43;;;;;;;12.55;37.83;95529.91;5093039;28;20190;-72
2022/03/27 00:43:19;;;;;;;19.40;9.23;;;;;;;12.52;37.83;95525.03;5092931;28;20189;-73
2022/03/27 00:45:46;;;;;;;18.73;9.47;;;;;;;12.49;37.74;95523.53;5093623;28;20194;-76
2022/03/27 00:48:13;;;;;;;15.10;8.50;;;;;;;12.48;37.78;95519.38;5092633;28;20580;-78
2022/03/27 00:50:42;;;;;;;16.77;9.37;;;;;;;12.42;37.80;95508.78;5092600;28;20189;-73
2022/03/27 00:53:09;;;;;;;13.20;8.40;;;;;;;12.41;37.89;95507.97;5092052;28;20255;-79
2022/03/27 00:55:36;;;;;;;22.03;9.27;;;;;;;12.40;37.99;95513.25;5093018;28;20221;-77
2022/03/27 00:58:03;;;;;;;20.43;9.80;;;;;;;12.38;37.90;95518.50;5095290;28;20189;-74
2022/03/27 01:00:44;;;;;;;17.77;8.77;;;;;;;12.34;38.08;95506.06;5092528;28;20189;-79
2022/03/27 01:03:12;;;;;;;17.40;10.20;;;;;;;12.30;38.05;95496.06;5091952;28;20266;-74
2022/03/27 01:05:41;;;;;;;20.70;9.67;;;;;;;12.25;38.31;95495.63;5090644;28;20306;-76
2022/03/27 01:08:09;;;;;;;15.20;9.20;;;;;;;12.26;38.17;95506.69;5091806;28;20204;-78
2022/03/27 01:10:36;;;;;;;17.73;9.47;;;;;;;12.20;38.21;95496.94;5092970;28;20178;-77
2022/03/27 01:13:05;;;;;;;17.23;9.97;;;;;;;12.21;38.31;95496.81;5093279;28;20181;-78
2022/03/27 01:15:39;;;;;;;17.87;9.77;;;;;;;12.14;38.31;95492.34;5091967;28;20217;-78
2022/03/27 01:18:13;;;;;;;20.00;9.77;;;;;;;12.14;38.27;95493.16;5092542;28;20182;-77
2022/03/27 01:20:43;;;;;;;17.03;9.63;;;;;;;12.10;38.63;95488.41;5092804;28;20209;-79
2022/03/27 01:23:13;;;;;;;16.20;8.97;;;;;;;12.03;38.49;95494.03;5091768;28;20232;-76
2022/03/27 01:25:42;;;;;;;21.30;10.40;;;;;;;12.06;38.63;95498.09;5091164;28;20675;-77
2022/03/27 01:28:11;;;;;;;22.87;10.77;;;;;;;12.06;38.34;95500.66;5092318;28;20181;-76
2022/03/27 01:30:38;;;;;;;19.20;9.63;;;;;;;12.02;38.37;95500.09;5092674;28;20197;-79
2022/03/27 01:33:09;;;;;;;18.40;9.40;;;;;;;12.01;38.52;95495.09;5092068;28;20189;-77
2022/03/27 01:35:36;;;;;;;18.23;9.07;;;;;;;11.98;38.58;95492.78;5092325;28;20245;-78
2022/03/27 01:38:05;;;;;;;24.20;10.17;;;;;;;11.90;38.74;95495.16;5092172;28;20583;-75
2022/03/27 01:40:31;;;;;;;21.13;10.03;;;;;;;11.92;38.69;95493.31;5091889;28;20190;-76
2022/03/27 01:42:58;;;;;;;16.90;9.73;;;;;;;11.90;38.75;95492.59;5092275;28;20204;-75
2022/03/27 01:45:27;;;;;;;18.47;10.10;;;;;;;11.86;38.78;95501.47;5091566;28;20537;-77
2022/03/27 01:47:54;;;;;;;17.87;10.00;;;;;;;11.81;38.77;95489.81;5091810;28;20190;-78
2022/03/27 01:50:21;;;;;;;20.17;9.57;;;;;;;11.78;38.77;95496.94;5091635;28;20186;-76
2022/03/27 01:52:48;;;;;;;19.77;10.27;;;;;;;11.74;38.96;95495.56;5092077;28;20633;-77
2022/03/27 01:55:16;;;;;;;20.47;9.67;;;;;;;11.70;38.74;95496.75;5091568;28;20225;-78
2022/03/27 01:57:43;;;;;;;22.27;11.50;;;;;;;11.68;38.88;95496.06;5089573;28;20217;-80
2022/03/27 02:00:14;;;;;;;18.53;10.03;;;;;;;11.67;38.54;95502.16;5090837;28;20197;-76
2022/03/27 02:02:41;;;;;;;22.80;9.53;;;;;;;11.62;38.71;95499.16;5092018;28;20181;-78
2022/03/27 02:05:09;;;;;;;19.80;9.73;;;;;;;11.60;38.72;95501.00;5091710;28;20391;-79
2022/03/27 02:07:37;;;;;;;14.37;8.90;;;;;;;11.58;38.58;95498.56;5090557;28;20215;-77
2022/03/27 02:10:05;;;;;;;16.80;9.73;;;;;;;11.54;38.63;95503.13;5088501;28;20193;-77
2022/03/27 02:12:35;;;;;;;20.17;9.97;;;;;;;11.52;38.66;95501.63;5091232;28;20214;-75
2022/03/27 02:15:01;;;;;;;16.10;8.87;;;;;;;11.48;38.80;95495.13;5091200;28;20223;-79
2022/03/27 02:17:28;;;;;;;21.93;8.33;;;;;;;11.47;38.67;95504.56;5091253;28;20200;-76
2022/03/27 02:19:55;;;;;;;21.63;9.00;;;;;;;11.45;38.76;95505.63;5091168;28;20193;-78
2022/03/27 02:22:22;;;;;;;16.13;8.67;;;;;;;11.43;38.64;95504.91;5089575;28;20205;-79
2022/03/27 02:24:49;;;;;;;16.23;8.10;;;;;;;11.38;38.86;95501.91;5090949;28;20260;-79
2022/03/27 02:27:16;;;;;;;15.97;8.07;;;;;;;11.36;38.79;95502.06;5091130;28;20216;-77
2022/03/27 02:29:44;;;;;;;16.97;7.83;;;;;;;11.34;38.74;95506.47;5091183;28;20197;-74
2022/03/27 02:32:14;;;;;;;16.87;8.13;;;;;;;11.30;38.88;95500.78;5090895;28;20200;-75
2022/03/27 02:34:41;;;;;;;16.23;7.53;;;;;;;11.27;38.91;95501.03;5090995;28;20241;-72
2022/03/27 02:37:08;;;;;;;13.43;7.77;;;;;;;11.25;38.89;95512.31;5089714;28;20208;-74
2022/03/27 02:39:35;;;;;;;17.73;9.00;;;;;;;11.23;38.95;95514.19;5090365;28;20197;-74
2022/03/27 02:42:02;;;;;;;19.40;8.73;;;;;;;11.21;38.91;95516.06;5090685;28;20186;-73
2022/03/27 02:44:29;;;;;;;20.10;12.27;;;;;;;11.19;39.03;95512.81;5090515;28;20201;-75
2022/03/27 02:46:57;;;;;;;19.97;10.53;;;;;;;11.16;39.11;95507.94;5089550;28;20625;-73
2022/03/27 02:49:24;;;;;;;24.63;14.23;;;;;;;11.13;39.11;95510.72;5089877;28;20189;-74
2022/03/27 02:51:50;;;;;;;22.10;12.73;;;;;;;11.13;39.19;95516.66;5090353;28;20186;-75
2022/03/27 02:54:17;;;;;;;31.13;15.37;;;;;;;11.10;39.35;95516.91;5090443;28;20217;-74
2022/03/27 02:56:46;;;;;;;20.00;12.63;;;;;;;11.09;39.26;95532.38;5090540;28;20255;-76
2022/03/27 02:59:13;;;;;;;25.83;11.47;;;;;;;11.05;39.42;95519.84;5089940;28;20208;-74
2022/03/27 03:01:40;;;;;;;24.53;12.77;;;;;;;11.04;39.54;95531.00;5090344;28;20267;-73
2022/03/27 03:04:08;;;;;;;23.60;13.33;;;;;;;11.01;39.59;95530.41;5090661;28;20178;-72
2022/03/27 03:06:35;;;;;;;21.27;11.63;;;;;;;10.83;39.94;95503.69;5090295;28;20736;-77
2022/03/27 03:09:02;;;;;;;22.43;10.80;;;;;;;10.98;39.90;95528.91;5090491;28;20181;-74
2022/03/27 03:11:29;;;;;;;21.63;10.67;;;;;;;10.95;39.79;95531.72;5089613;28;20247;-79
2022/03/27 03:13:56;;;;;;;18.37;11.07;;;;;;;10.94;39.95;95532.66;5088846;28;20212;-75
2022/03/27 03:16:24;;;;;;;20.50;10.50;;;;;;;10.93;39.93;95532.78;5090242;28;20193;-74
2022/03/27 03:18:52;;;;;;;19.03;9.93;;;;;;;10.83;40.05;95524.97;5090337;28;20194;-73
2022/03/27 03:21:21;;;;;;;20.80;10.60;;;;;;;10.86;40.00;95531.63;5092721;28;20185;-76
2022/03/27 03:23:48;;;;;;;22.33;10.80;;;;;;;10.85;40.20;95530.00;5095738;28;20260;-74
2022/03/27 03:26:14;;;;;;;18.77;10.23;;;;;;;10.83;40.30;95531.84;5093081;28;20201;-73
2022/03/27 03:28:41;;;;;;;22.07;10.60;;;;;;;10.80;40.35;95520.94;5089877;28;20190;-76
2022/03/27 03:31:08;;;;;;;21.63;10.60;;;;;;;10.78;40.41;95525.34;5090432;28;20181;-74
2022/03/27 03:33:35;;;;;;;16.23;9.77;;;;;;;10.76;40.51;95526.41;5090069;28;20201;-72
2022/03/27 03:36:02;;;;;;;20.40;9.97;;;;;;;10.75;40.55;95532.44;5090357;28;20224;-74
2022/03/27 03:38:30;;;;;;;20.57;10.97;;;;;;;10.73;40.58;95530.00;5087676;28;20197;-75
2022/03/27 03:40:57;;;;;;;19.40;10.17;;;;;;;10.73;40.63;95530.00;5089741;28;20217;-74
2022/03/27 03:43:23;;;;;;;19.93;10.27;;;;;;;10.69;40.79;95525.22;5089615;28;20212;-78
2022/03/27 03:45:50;;;;;;;20.37;10.07;;;;;;;10.67;40.81;95527.91;5090058;28;20182;-76
2022/03/27 03:48:17;;;;;;;21.73;10.93;;;;;;;10.64;41.11;95532.47;5092214;28;20635;-78
2022/03/27 03:50:44;;;;;;;17.60;9.60;;;;;;;10.61;41.16;95533.50;5094091;28;20194;-73
2022/03/27 03:53:11;;;;;;;19.27;9.73;;;;;;;10.59;41.09;95527.69;5094273;28;20193;-74
2022/03/27 03:55:39;;;;;;;20.30;10.50;;;;;;;10.54;41.27;95525.47;5093438;28;20217;-75
2022/03/27 03:58:06;;;;;;;16.67;9.30;;;;;;;10.54;41.29;95534.91;5073948;28;20654;-74
2022/03/27 04:00:33;;;;;;;14.57;9.13;;;;;;;10.52;41.40;95541.88;5073656;28;20198;-77
2022/03/27 04:03:00;;;;;;;19.57;9.83;;;;;;;10.49;41.34;95537.81;5073997;28;20202;-74
2022/03/27 04:05:27;;;;;;;15.83;9.33;;;;;;;10.38;41.58;95527.56;5073769;28;20193;-76
2022/03/27 04:07:53;;;;;;;16.80;9.77;;;;;;;10.47;41.50;95541.41;5073642;28;20182;-75
2022/03/27 04:10:20;;;;;;;20.67;9.57;;;;;;;10.46;41.52;95547.47;5076516;28;20594;-77
2022/03/27 04:12:49;;;;;;;17.30;8.80;;;;;;;10.44;41.74;95549.31;5093117;28;20540;-75
2022/03/27 04:15:15;;;;;;;19.50;8.97;;;;;;;10.42;41.76;95558.84;5093704;28;20247;-73
2022/03/27 04:17:44;;;;;;;17.73;9.43;;;;;;;10.38;41.73;95557.44;5093228;28;20189;-76
2022/03/27 04:20:12;;;;;;;22.03;9.23;;;;;;;10.37;41.88;95560.94;5093749;28;20194;-77
2022/03/27 04:22:39;;;;;;;20.83;10.30;;;;;;;10.38;41.75;95560.00;5093173;28;20267;-78
2022/03/27 04:25:07;;;;;;;16.63;9.00;;;;;;;10.37;41.76;95564.31;5093206;28;20182;-77
2022/03/27 04:27:33;;;;;;;17.00;9.43;;;;;;;10.36;41.84;95566.94;5093106;28;20711;-77
2022/03/27 04:30:03;;;;;;;19.30;8.67;;;;;;;10.34;41.98;95574.75;5093471;28;20601;-78
2022/03/27 04:32:30;;;;;;;14.53;9.93;;;;;;;10.37;41.81;95563.50;5093095;28;20189;-74
2022/03/27 04:34:57;;;;;;;15.07;8.60;;;;;;;10.38;41.73;95565.94;5093580;28;20217;-79
2022/03/27 04:37:24;;;;;;;15.83;8.90;;;;;;;10.39;41.80;95574.41;5092903;28;20185;-77
2022/03/27 04:39:50;;;;;;;11.80;8.27;;;;;;;10.42;41.64;95579.31;5093356;28;20213;-73
2022/03/27 04:42:17;;;;;;;12.10;7.70;;;;;;;10.45;41.71;95579.88;5093312;28;20193;-74
2022/03/27 04:44:44;;;;;;;17.90;9.20;;;;;;;10.48;41.68;95571.97;5093312;28;20659;-75
2022/03/27 04:47:12;;;;;;;20.83;9.23;;;;;;;10.50;41.71;95582.91;5093160;28;20582;-74
2022/03/27 04:49:39;;;;;;;21.57;9.53;;;;;;;10.58;41.60;95591.72;5093228;28;20189;-77
2022/03/27 04:52:06;;;;;;;25.73;9.10;;;;;;;10.63;41.61;95587.09;5093505;28;20213;-75
2022/03/27 04:54:34;;;;;;;19.70;10.13;;;;;;;10.68;41.59;95592.69;5092177;28;20514;-72
2022/03/27 04:57:01;;;;;;;18.90;9.13;;;;;;;10.77;41.29;95599.66;5092736;28;20193;-73
2022/03/27 04:59:28;;;;;;;17.27;9.33;;;;;;;10.85;41.02;95601.63;5091307;28;20190;-76
2022/03/27 05:01:55;;;;;;;18.73;9.43;;;;;;;10.99;40.83;95615.00;5092545;28;20619;-74
2022/03/27 05:04:23;;;;;;;19.93;9.23;;;;;;;11.16;40.84;95610.34;5092471;28;20638;-73
2022/03/27 05:06:50;;;;;;;20.00;9.00;;;;;;;11.34;40.47;95608.09;5092692;28;20189;-76
2022/03/27 05:09:18;;;;;;;17.77;9.80;;;;;;;11.66;40.19;95603.00;5091839;28;20185;-76
2022/03/27 05:11:45;;;;;;;19.63;10.07;;;;;;;12.04;40.03;95613.56;5092483;28;20189;-76
2022/03/27 05:14:11;;;;;;;14.77;9.57;;;;;;;12.48;40.14;95613.47;5092787;28;20197;-74
2022/03/27 05:16:38;;;;;;;17.90;9.13;;;;;;;13.01;39.90;95613.31;5092259;28;20214;-77
2022/03/27 05:19:06;;;;;;;24.80;9.40;;;;;;;13.56;39.54;95611.19;5092702;28;20546;-76
2022/03/27 05:21:35;;;;;;;21.57;11.00;;;;;;;14.21;38.92;95611.47;5091902;28;20876;-76
2022/03/27 05:24:02;;;;;;;18.00;9.30;;;;;;;14.88;38.29;95618.22;5092105;28;20654;-75
2022/03/27 05:26:29;;;;;;;16.23;10.10;;;;;;;15.57;37.74;95617.75;5091684;28;20544;-78
2022/03/27 05:28:56;;;;;;;31.33;10.03;;;;;;;16.29;37.18;95621.19;5092456;28;20204;-76
2022/03/27 05:31:23;;;;;;;16.77;10.07;;;;;;;17.02;36.20;95615.69;5091943;28;20200;-76
2022/03/27 05:33:50;;;;;;;18.70;9.57;;;;;;;17.74;35.58;95613.50;5092277;28;20190;-81
2022/03/27 05:36:17;;;;;;;18.20;9.90;;;;;;;18.47;34.46;95617.09;5091666;28;20633;-76
2022/03/27 05:38:45;;;;;;;21.23;9.57;;;;;;;19.20;33.49;95616.94;5091761;28;20214;-75
2022/03/27 05:41:12;;;;;;;15.60;9.27;;;;;;;19.91;32.81;95619.56;5092066;28;20599;-73
2022/03/27 05:43:39;;;;;;;18.40;9.47;;;;;;;20.62;31.80;95623.53;5092174;28;20505;-80
2022/03/27 05:46:06;;;;;;;21.27;10.33;;;;;;;21.30;31.00;95619.88;5091515;28;20785;-78
2022/03/27 05:48:33;;;;;;;16.87;9.80;;;;;;;21.99;30.29;95623.91;5091828;28;20239;-75
2022/03/27 05:51:00;;;;;;;17.23;8.70;;;;;;;22.68;29.58;95628.53;5091355;28;20201;-80
2022/03/27 05:53:26;;;;;;;17.60;9.90;;;;;;;23.34;28.83;95628.13;5091583;28;20247;-73
2022/03/27 05:55:55;;;;;;;16.58;9.32;;;;;;;23.96;28.03;95627.16;5091842;28;20302;-80
2022/03/27 05:58:22;;;;;;;14.00;8.85;;;;;;;24.57;27.55;95634.91;5091892;28;20205;-75
2022/03/27 06:00:49;;;;;;;13.00;8.25;;;;;;;25.17;26.74;95638.28;5091308;28;20653;-76
2022/03/27 06:03:16;;;;;;;13.27;8.20;;;;;;;25.76;26.05;95636.44;5091212;28;20711;-75
2022/03/27 06:05:43;;;;;;;18.00;8.85;;;;;;;26.34;25.63;95643.38;5091386;28;20196;-77
2022/03/27 06:08:11;;;;;;;12.25;8.25;;;;;;;26.92;24.95;95648.41;5091129;28;20837;-85
2022/03/27 06:10:40;;;;;;;17.90;4.60;;;;;;;27.39;30.02;95646.13;5090741;28;20200;-79
2022/03/27 06:13:10;;;;;;;19.98;5.38;;;;;;;27.68;31.23;95645.38;5090096;28;20203;-79
2022/03/27 06:15:37;;;;;;;9.98;5.03;;;;;;;27.90;32.69;95650.22;5090598;28;20214;-78
2022/03/27 06:18:04;;;;;;;11.65;5.45;;;;;;;28.11;32.37;95641.00;5091087;28;20665;-84
2022/03/27 06:20:32;;;;;;;9.73;6.22;;;;;;;28.25;31.45;95643.22;5091022;28;20273;-81
2022/03/27 06:23:00;;;;;;;13.73;5.95;;;;;;;28.47;31.68;95654.06;5084333;28;20221;-83
2022/03/27 06:25:28;;;;;;;14.95;6.30;;;;;;;28.64;31.18;95648.94;5088653;28;20937;-84
2022/03/27 06:27:56;;;;;;;11.23;6.57;;;;;;;28.80;30.74;95646.66;5088613;28;20712;-77
2022/03/27 06:30:26;;;;;;;14.20;6.22;;;;;;;28.92;29.84;95644.81;5089508;28;20186;-75
2022/03/27 06:32:53;;;;;;;13.23;6.68;;;;;;;29.04;29.63;95635.13;5088292;28;20221;-79
2022/03/27 06:35:21;;;;;;;15.55;7.28;;;;;;;29.15;28.51;95646.69;5088832;28;20197;-76
2022/03/27 06:37:49;;;;;;;12.68;7.10;;;;;;;29.25;28.07;95645.06;5090025;28;20185;-76
2022/03/27 06:40:17;;;;;;;18.92;8.40;;;;;;;29.37;27.43;95639.78;5089053;28;20193;-77
2022/03/27 06:42:45;;;;;;;14.63;7.55;;;;;;;29.47;27.29;95649.72;5088589;28;20204;-88
2022/03/27 06:45:13;;;;;;;13.43;8.00;;;;;;;29.55;28.25;95643.28;5088790;28;20197;-77
2022/03/27 06:47:42;;;;;;;10.90;7.60;;;;;;;29.64;27.24;95650.63;5087591;28;20200;-77
2022/03/27 06:50:10;;;;;;;16.42;8.55;;;;;;;29.72;26.77;95652.09;5085718;28;20289;-87
2022/03/27 06:52:37;;;;;;;14.40;8.88;;;;;;;29.79;26.20;95662.50;5088210;28;20200;-78
2022/03/27 06:55:06;;;;;;;15.57;7.95;;;;;;;29.84;26.03;95660.78;5087932;28;20185;-80
2022/03/27 06:57:33;;;;;;;16.17;9.25;;;;;;;29.92;25.60;95656.94;5088476;28;20205;-75
2022/03/27 07:03:06;;;;;;;14.13;8.85;;;;;;;30.02;25.31;95661.63;5088059;28;20193;-76
2022/03/27 07:05:34;;;;;;;13.63;7.95;;;;;;;30.02;25.42;95651.06;5087852;28;20193;-70
2022/03/27 07:08:00;;;;;;;12.52;8.20;;;;;;;30.11;25.65;95657.56;5088111;28;20194;-74
2022/03/27 07:10:27;;;;;;;12.55;8.40;;;;;;;30.18;25.37;95663.50;5087380;28;20190;-74
2022/03/27 07:12:54;;;;;;;16.90;9.27;;;;;;;30.25;24.97;95669.47;5091626;28;20557;-76
2022/03/27 07:15:23;;;;;;;11.10;8.65;;;;;;;30.30;24.98;95666.91;5087553;28;20239;-78
2022/03/27 07:17:53;;;;;;;19.95;9.02;;;;;;;30.38;24.90;95660.44;5087990;28;20182;-73
2022/03/27 07:20:23;;;;;;;13.63;9.50;;;;;;;30.44;24.92;95662.13;5087654;28;20186;-81
2022/03/27 07:22:51;;;;;;;15.50;9.82;;;;;;;30.47;24.53;95654.53;5086903;28;20319;-82
2022/03/27 07:25:18;;;;;;;14.65;9.98;;;;;;;30.49;24.23;95665.66;5087206;28;20189;-75
2022/03/27 07:27:45;;;;;;;16.15;10.48;;;;;;;30.50;24.40;95658.53;5086828;28;20189;-77
2022/03/27 07:30:12;;;;;;;15.98;9.93;;;;;;;30.53;24.10;95655.44;5086756;28;20759;-72
2022/03/27 07:32:40;;;;;;;15.10;10.45;;;;;;;30.54;24.00;95657.03;5080278;28;20256;-73
2022/03/27 07:35:10;;;;;;;14.50;10.32;;;;;;;30.55;24.20;95655.19;5087127;28;20228;-73
2022/03/27 07:37:38;;;;;;;15.48;10.32;;;;;;;30.59;24.12;95645.72;5087511;28;20209;-74
2022/03/27 07:40:08;;;;;;;13.95;9.50;;;;;;;30.61;24.14;95648.94;5086539;28;20197;-72
2022/03/27 07:42:35;;;;;;;17.33;9.73;;;;;;;30.63;24.06;95639.72;5087229;28;20239;-73
2022/03/27 07:45:03;;;;;;;18.40;12.02;;;;;;;30.64;24.02;95640.53;5087469;28;20193;-75
2022/03/27 07:47:30;;;;;;;15.85;8.73;;;;;;;30.70;24.71;95640.38;5087034;28;20200;-72
2022/03/27 07:49:57;;;;;;;16.00;10.13;;;;;;;30.78;24.93;95636.53;5086760;28;20190;-71
2022/03/27 07:52:25;;;;;;;13.25;9.60;;;;;;;30.85;24.83;95631.91;5086982;28;20197;-74
2022/03/27 07:54:51;;;;;;;19.20;8.35;;;;;;;30.91;25.54;95632.78;5087722;28;20271;-77
2022/03/27 07:57:20;;;;;;;13.20;8.52;;;;;;;30.97;26.15;95632.63;5086285;28;20217;-74
2022/03/27 07:59:47;;;;;;;16.15;8.05;;;;;;;31.05;26.01;95634.03;5083968;28;20572;-74
2022/03/27 08:02:14;;;;;;;13.60;9.02;;;;;;;31.10;25.98;95630.69;5072089;28;20285;-75
2022/03/27 08:04:40;;;;;;;10.73;7.75;;;;;;;31.11;25.12;95627.78;5070815;28;20182;-75
2022/03/27 08:07:07;;;;;;;13.18;7.88;;;;;;;31.13;23.81;95628.34;5066863;28;20735;-77
2022/03/27 08:09:36;;;;;;;15.13;7.65;;;;;;;31.12;23.51;95629.38;5067009;28;20194;-76
2022/03/27 08:12:03;;;;;;;15.75;6.97;;;;;;;31.11;23.49;95640.19;5066524;28;20206;-77
2022/03/27 08:14:31;;;;;;;9.45;7.55;;;;;;;31.10;23.54;95633.31;5067177;28;20194;-76
2022/03/27 08:16:58;;;;;;;13.52;7.90;;;;;;;31.07;23.01;95629.31;5066795;28;20271;-79
2022/03/27 08:19:25;;;;;;;16.75;8.30;;;;;;;31.03;23.27;95630.03;5072385;28;20216;-77
2022/03/27 08:21:53;;;;;;;15.68;7.72;;;;;;;30.98;23.24;95631.56;5089356;28;20189;-78
2022/03/27 08:24:19;;;;;;;12.80;8.15;;;;;;;30.95;23.10;95628.59;5089525;28;20299;-77
2022/03/27 08:26:55;;;;;;;14.63;8.65;;;;;;;30.88;22.98;95626.16;5091179;28;20658;-83
2022/03/27 08:29:23;;;;;;;11.63;8.10;;;;;;;30.75;22.40;95618.56;5093600;28;20182;-78
2022/03/27 08:31:51;;;;;;;16.25;8.10;;;;;;;30.63;23.26;95613.31;5089096;28;20626;-79
2022/03/27 08:34:18;;;;;;;18.38;6.90;;;;;;;30.56;23.42;95617.16;5089930;28;20220;-81
2022/03/27 08:36:45;;;;;;;18.58;8.23;;;;;;;30.52;23.80;95616.03;5092791;28;20256;-76
2022/03/27 08:39:12;;;;;;;11.35;5.97;;;;;;;30.42;23.99;95614.03;5093593;28;20189;-80
2022/03/27 08:41:44;;;;;;;7.70;6.63;;;;;;;30.40;25.32;95624.06;5092911;28;20606;-83
2022/03/27 08:44:14;;;;;;;10.18;6.88;;;;;;;30.43;24.75;95616.44;5093151;28;20292;-83
2022/03/27 08:46:42;;;;;;;9.05;6.75;;;;;;;30.55;23.66;95611.09;5091832;28;20664;-73
2022/03/27 08:49:12;;;;;;;8.07;6.28;;;;;;;30.65;23.27;95608.59;5093887;28;20197;-85
2022/03/27 08:51:48;;;;;;;11.82;7.10;;;;;;;30.72;22.82;95611.91;5091925;28;20221;-79
2022/03/27 08:54:18;;;;;;;8.27;7.47;;;;;;;30.82;22.23;95605.97;5092908;28;20676;-77
2022/03/27 08:56:54;;;;;;;9.98;7.20;;;;;;;30.88;21.94;95605.00;5092390;28;20865;-77
2022/03/27 08:59:22;;;;;;;11.63;6.75;;;;;;;30.93;21.91;95613.00;5093269;28;20672;-77
2022/03/27 09:01:50;;;;;;;8.65;7.25;;;;;;;30.95;21.39;95608.25;5092731;28;20194;-77
2022/03/27 09:04:17;;;;;;;9.43;7.72;;;;;;;30.93;21.45;95597.16;5093126;28;20182;-77
2022/03/27 09:06:44;;;;;;;9.57;7.57;;;;;;;30.92;21.45;95600.84;5092520;28;20280;-77
2022/03/27 09:09:11;;;;;;;11.90;8.10;;;;;;;30.88;21.27;95602.38;5091448;28;20653;-76
2022/03/27 09:11:39;;;;;;;12.65;7.22;;;;;;;30.77;20.88;95602.47;5092586;28;20189;-78
2022/03/27 09:14:08;;;;;;;10.75;8.05;;;;;;;30.76;20.80;95600.88;5092682;28;20194;-76
2022/03/27 09:17:02;;;;;;;21.58;8.30;;;;;;;30.69;20.89;95608.91;5092286;28;20854;-77
2022/03/27 09:19:39;;;;;;;12.57;8.13;;;;;;;30.59;20.73;95614.06;5092558;28;20696;-76
2022/03/27 09:22:16;;;;;;;9.68;8.25;;;;;;;30.46;20.46;95601.97;5092399;28;20284;-76
2022/03/27 09:24:46;;;;;;;9.75;8.50;;;;;;;30.29;20.52;95599.31;5091771;28;20229;-78
2022/03/27 09:27:13;;;;;;;13.68;8.90;;;;;;;30.19;20.52;95589.41;5092072;28;20193;-77
2022/03/27 09:30:02;;;;;;;10.88;8.40;;;;;;;30.06;20.03;95591.53;5092158;28;20665;-76
2022/03/27 09:32:32;;;;;;;16.63;9.13;;;;;;;29.93;20.36;95598.69;5092422;28;20193;-76
2022/03/27 09:35:01;;;;;;;11.95;9.05;;;;;;;29.77;20.53;95590.75;5090082;28;20198;-77
2022/03/27 09:37:33;;;;;;;14.13;9.25;;;;;;;29.63;20.21;95587.59;5091960;28;20292;-76
2022/03/27 09:40:01;;;;;;;13.10;8.52;;;;;;;29.42;20.33;95579.25;5091782;28;20581;-76
2022/03/27 09:42:29;;;;;;;12.65;9.20;;;;;;;29.34;20.25;95579.63;5091872;28;20198;-77
2022/03/27 09:45:17;;;;;;;14.85;8.80;;;;;;;29.19;20.06;95592.50;5091427;28;20190;-76
2022/03/27 09:47:47;;;;;;;9.68;8.48;;;;;;;29.00;20.38;95583.91;5092054;28;20189;-77
2022/03/27 09:50:30;;;;;;;14.55;8.50;;;;;;;28.83;20.18;95580.34;5091745;28;20185;-78
2022/03/27 09:53:23;;;;;;;10.93;8.35;;;;;;;28.63;20.48;95571.00;5090565;28;20201;-78
2022/03/27 09:55:55;;;;;;;11.77;9.20;;;;;;;28.47;20.53;95569.84;5091234;28;20665;-78
2022/03/27 09:58:35;;;;;;;12.52;8.95;;;;;;;28.31;20.59;95569.69;5091403;28;20221;-77
2022/03/27 10:01:10;;;;;;;10.88;7.80;;;;;;;28.15;20.35;95568.50;5090793;28;20185;-78
2022/03/27 10:03:57;;;;;;;12.23;8.55;;;;;;;27.95;20.77;95563.56;5091834;28;20182;-76
2022/03/27 10:06:29;;;;;;;12.63;8.90;;;;;;;27.80;20.59;95555.25;5091836;28;20545;-79
2022/03/27 10:08:56;;;;;;;12.60;8.38;;;;;;;27.70;20.54;95553.16;5091299;28;20280;-78
2022/03/27 10:11:24;;;;;;;12.75;7.72;;;;;;;27.47;20.78;95541.53;5091299;28;20213;-77
2022/03/27 10:13:53;;;;;;;10.32;8.07;;;;;;;27.44;20.47;95554.31;5091080;28;20292;-76
2022/03/27 10:16:24;;;;;;;16.10;8.07;;;;;;;27.32;20.91;95543.75;5091270;28;20693;-78
2022/03/27 10:18:55;;;;;;;14.35;8.32;;;;;;;27.20;20.64;95542.88;5090850;28;20194;-78
2022/03/27 10:21:24;;;;;;;9.50;7.45;;;;;;;27.06;20.52;95542.22;5091185;28;20695;-76
2022/03/27 10:24:00;;;;;;;13.77;7.82;;;;;;;26.93;20.60;95543.16;5090467;28;20692;-77
2022/03/27 10:26:27;;;;;;;13.13;7.30;;;;;;;26.82;21.10;95533.41;5088245;28;20197;-76
2022/03/27 10:28:55;;;;;;;10.38;7.82;;;;;;;26.70;20.90;95537.75;5090117;28;20185;-75
2022/03/27 10:31:23;;;;;;;10.55;7.13;;;;;;;26.59;20.61;95528.78;5090809;28;20201;-78
2022/03/27 10:33:55;;;;;;;12.07;7.65;;;;;;;26.50;21.02;95541.38;5090412;28;20189;-76
2022/03/27 10:36:31;;;;;;;13.98;7.60;;;;;;;26.41;20.75;95536.59;5090812;28;20202;-77
2022/03/27 10:39:05;;;;;;;13.07;7.80;;;;;;;26.28;20.85;95527.81;5090519;28;20189;-76
2022/03/27 10:41:37;;;;;;;14.13;6.85;;;;;;;26.19;20.77;95534.34;5091150;28;20264;-76
2022/03/27 10:44:13;;;;;;;10.02;7.50;;;;;;;26.12;20.79;95528.38;5090260;28;20193;-77
2022/03/27 10:46:40;;;;;;;11.30;6.70;;;;;;;26.05;21.05;95526.81;5090785;28;20200;-77
2022/03/27 10:49:13;;;;;;;9.05;7.15;;;;;;;25.98;20.80;95519.00;5090427;28;20197;-77
2022/03/27 10:51:41;;;;;;;8.30;6.57;;;;;;;25.92;21.04;95514.63;5089517;28;20197;-78
2022/03/27 10:54:10;;;;;;;10.38;7.53;;;;;;;25.88;21.17;95516.06;5090106;28;20193;-77
2022/03/27 10:56:40;;;;;;;11.05;7.65;;;;;;;25.82;20.99;95515.09;5089766;28;20193;-77
2022/03/27 10:59:16;;;;;;;13.20;7.43;;;;;;;25.73;21.19;95509.28;5089987;28;20208;-76
2022/03/27 11:01:45;;;;;;;8.68;7.15;;;;;;;25.68;21.34;95516.16;5090681;28;20246;-77
2022/03/27 11:04:14;;;;;;;12.57;7.85;;;;;;;25.62;21.21;95514.38;5090384;28;20235;-78
2022/03/27 11:06:43;;;;;;;13.35;7.32;;;;;;;25.56;21.15;95515.22;5090488;28;20634;-78
2022/03/27 11:09:14;;;;;;;12.38;7.90;;;;;;;25.50;21.38;95506.38;5090221;28;20247;-77
2022/03/27 11:11:54;;;;;;;13.32;7.63;;;;;;;25.46;21.32;95492.09;5090230;28;20182;-77
2022/03/27 11:15:02;;;;;;;8.90;7.63;;;;;;;25.39;21.40;95491.31;5089912;28;20219;-77
2022/03/27 11:17:55;;;;;;;10.00;7.95;;;;;;;25.33;21.36;95489.56;5087970;28;20212;-76
2022/03/27 11:20:56;;;;;;;14.02;8.70;;;;;;;25.24;21.52;95486.38;5090158;28;20229;-77
2022/03/27 11:23:31;;;;;;;13.18;8.73;;;;;;;25.20;21.43;95483.38;5089936;28;20680;-77
2022/03/27 11:26:00;;;;;;;10.98;7.93;;;;;;;25.11;21.48;95473.34;5089768;28;20201;-79
2022/03/27 11:28:43;;;;;;;11.60;7.85;;;;;;;25.12;21.51;95475.75;5090067;28;20200;-77
2022/03/27 11:31:29;;;;;;;13.55;7.78;;;;;;;25.09;21.40;95475.41;5090062;28;20616;-77
2022/03/27 11:34:21;;;;;;;11.57;8.77;;;;;;;25.04;21.66;95462.88;5090032;28;20262;-76
2022/03/27 11:37:22;;;;;;;13.07;8.98;;;;;;;24.99;21.52;95468.75;5089684;28;20299;-76
2022/03/27 11:39:50;;;;;;;14.98;9.48;;;;;;;24.91;21.72;95468.19;5086100;28;20221;-77